sensor_id;sensor_type;location;lat;lon;timestamp;P1;durP1;ratioP1;P2;durP2;ratioP2
72379;SDS011;60354;47.798;12.472;2023-02-18T00:01:25;2.35;;;1.00;;
72379;SDS011;60354;47.798;12.472;2023-02-18T00:03:51;1.45;;;0.90;;
72379;SDS011;60354;47.798;12.472;2023-02-18T00:06:27;1.65;;;0.93;;
72379;SDS011;60354;47.798;12.472;2023-02-18T00:08:55;1.10;;;0.80;;
72379;SDS011;60354;47.798;12.472;2023-02-18T00:11:23;3.30;;;0.88;;
72379;SDS011;60354;47.798;12.472;2023-02-18T00:13:52;1.70;;;0.85;;
72379;SDS011;60354;47.798;12.472;2023-02-18T00:16:22;1.35;;;0.73;;
72379;SDS011;60354;47.798;12.472;2023-02-18T00:18:49;1.88;;;0.93;;
72379;SDS011;60354;47.798;12.472;2023-02-18T00:21:18;1.55;;;0.90;;
72379;SDS011;60354;47.798;12.472;2023-02-18T00:23:44;0.85;;;0.77;;
72379;SDS011;60354;47.798;12.472;2023-02-18T00:26:11;1.25;;;0.70;;
72379;SDS011;60354;47.798;12.472;2023-02-18T00:28:39;1.73;;;1.00;;
72379;SDS011;60354;47.798;12.472;2023-02-18T00:31:06;1.58;;;0.80;;
72379;SDS011;60354;47.798;12.472;2023-02-18T00:33:33;0.95;;;0.80;;
72379;SDS011;60354;47.798;12.472;2023-02-18T00:36:05;1.40;;;0.80;;
72379;SDS011;60354;47.798;12.472;2023-02-18T00:38:34;1.58;;;0.80;;
72379;SDS011;60354;47.798;12.472;2023-02-18T00:41:01;1.35;;;0.88;;
72379;SDS011;60354;47.798;12.472;2023-02-18T00:43:27;1.70;;;0.80;;
72379;SDS011;60354;47.798;12.472;2023-02-18T00:45:53;1.40;;;0.70;;
72379;SDS011;60354;47.798;12.472;2023-02-18T00:48:19;3.65;;;0.85;;
72379;SDS011;60354;47.798;12.472;2023-02-18T00:50:44;2.75;;;0.80;;
72379;SDS011;60354;47.798;12.472;2023-02-18T00:53:11;3.10;;;1.00;;
72379;SDS011;60354;47.798;12.472;2023-02-18T00:55:38;1.45;;;0.80;;
72379;SDS011;60354;47.798;12.472;2023-02-18T00:58:04;1.38;;;0.90;;
72379;SDS011;60354;47.798;12.472;2023-02-18T01:00:29;1.00;;;0.90;;
72379;SDS011;60354;47.798;12.472;2023-02-18T01:02:55;1.65;;;0.90;;
72379;SDS011;60354;47.798;12.472;2023-02-18T01:05:21;1.45;;;0.90;;
72379;SDS011;60354;47.798;12.472;2023-02-18T01:07:46;0.98;;;0.70;;
72379;SDS011;60354;47.798;12.472;2023-02-18T01:10:12;1.10;;;0.80;;
72379;SDS011;60354;47.798;12.472;2023-02-18T01:12:38;1.90;;;0.80;;
72379;SDS011;60354;47.798;12.472;2023-02-18T01:15:04;1.55;;;0.80;;
72379;SDS011;60354;47.798;12.472;2023-02-18T01:17:31;1.42;;;0.85;;
72379;SDS011;60354;47.798;12.472;2023-02-18T01:19:57;2.15;;;0.88;;
72379;SDS011;60354;47.798;12.472;2023-02-18T01:22:23;1.30;;;0.80;;
72379;SDS011;60354;47.798;12.472;2023-02-18T01:24:49;1.70;;;0.90;;
72379;SDS011;60354;47.798;12.472;2023-02-18T01:27:15;1.52;;;0.95;;
72379;SDS011;60354;47.798;12.472;2023-02-18T01:29:41;2.63;;;1.20;;
72379;SDS011;60354;47.798;12.472;2023-02-18T01:32:06;1.00;;;0.90;;
72379;SDS011;60354;47.798;12.472;2023-02-18T01:34:32;2.28;;;0.90;;
72379;SDS011;60354;47.798;12.472;2023-02-18T01:36:58;1.92;;;1.00;;
72379;SDS011;60354;47.798;12.472;2023-02-18T01:39:24;2.42;;;0.90;;
72379;SDS011;60354;47.798;12.472;2023-02-18T01:41:49;2.97;;;1.00;;
72379;SDS011;60354;47.798;12.472;2023-02-18T01:44:17;1.42;;;0.90;;
72379;SDS011;60354;47.798;12.472;2023-02-18T01:46:47;2.90;;;0.95;;
72379;SDS011;60354;47.798;12.472;2023-02-18T01:49:18;1.00;;;0.80;;
72379;SDS011;60354;47.798;12.472;2023-02-18T01:51:49;1.80;;;1.00;;
72379;SDS011;60354;47.798;12.472;2023-02-18T01:54:20;2.92;;;1.00;;
72379;SDS011;60354;47.798;12.472;2023-02-18T01:59:38;1.13;;;0.88;;
72379;SDS011;60354;47.798;12.472;2023-02-18T02:02:06;3.45;;;1.00;;
72379;SDS011;60354;47.798;12.472;2023-02-18T02:04:35;1.42;;;1.10;;
72379;SDS011;60354;47.798;12.472;2023-02-18T02:07:01;3.17;;;1.02;;
72379;SDS011;60354;47.798;12.472;2023-02-18T02:09:27;1.60;;;0.90;;
72379;SDS011;60354;47.798;12.472;2023-02-18T02:17:38;3.97;;;1.00;;
72379;SDS011;60354;47.798;12.472;2023-02-18T02:36:50;3.03;;;1.10;;
72379;SDS011;60354;47.798;12.472;2023-02-18T02:39:37;1.83;;;0.90;;
72379;SDS011;60354;47.798;12.472;2023-02-18T02:50:51;1.92;;;0.95;;
72379;SDS011;60354;47.798;12.472;2023-02-18T02:53:21;1.88;;;1.05;;
72379;SDS011;60354;47.798;12.472;2023-02-18T02:55:49;2.60;;;0.88;;
72379;SDS011;60354;47.798;12.472;2023-02-18T02:58:18;1.50;;;0.90;;
72379;SDS011;60354;47.798;12.472;2023-02-18T03:11:57;1.40;;;0.75;;
72379;SDS011;60354;47.798;12.472;2023-02-18T03:22:48;1.48;;;0.90;;
72379;SDS011;60354;47.798;12.472;2023-02-18T03:25:16;2.15;;;1.10;;
72379;SDS011;60354;47.798;12.472;2023-02-18T03:27:44;2.53;;;1.00;;
72379;SDS011;60354;47.798;12.472;2023-02-18T03:30:42;2.03;;;1.15;;
72379;SDS011;60354;47.798;12.472;2023-02-18T03:33:13;2.17;;;1.15;;
72379;SDS011;60354;47.798;12.472;2023-02-18T03:35:42;1.35;;;1.00;;
72379;SDS011;60354;47.798;12.472;2023-02-18T03:40:57;1.92;;;1.10;;
72379;SDS011;60354;47.798;12.472;2023-02-18T03:43:23;2.95;;;1.20;;
72379;SDS011;60354;47.798;12.472;2023-02-18T03:45:49;3.20;;;1.30;;
72379;SDS011;60354;47.798;12.472;2023-02-18T03:48:15;2.33;;;1.15;;
72379;SDS011;60354;47.798;12.472;2023-02-18T03:50:40;3.22;;;1.10;;
72379;SDS011;60354;47.798;12.472;2023-02-18T03:53:06;3.13;;;1.20;;
72379;SDS011;60354;47.798;12.472;2023-02-18T03:55:31;2.75;;;1.25;;
72379;SDS011;60354;47.798;12.472;2023-02-18T03:57:56;2.28;;;1.10;;
72379;SDS011;60354;47.798;12.472;2023-02-18T04:00:22;3.42;;;1.40;;
72379;SDS011;60354;47.798;12.472;2023-02-18T04:02:47;2.72;;;1.30;;
72379;SDS011;60354;47.798;12.472;2023-02-18T04:05:13;3.88;;;1.60;;
72379;SDS011;60354;47.798;12.472;2023-02-18T04:07:38;1.77;;;1.40;;
72379;SDS011;60354;47.798;12.472;2023-02-18T04:10:04;3.47;;;1.70;;
72379;SDS011;60354;47.798;12.472;2023-02-18T04:12:30;2.95;;;1.60;;
72379;SDS011;60354;47.798;12.472;2023-02-18T04:14:56;3.65;;;1.58;;
72379;SDS011;60354;47.798;12.472;2023-02-18T04:17:21;2.00;;;1.50;;
72379;SDS011;60354;47.798;12.472;2023-02-18T04:19:47;3.20;;;1.60;;
72379;SDS011;60354;47.798;12.472;2023-02-18T04:22:12;1.95;;;1.50;;
72379;SDS011;60354;47.798;12.472;2023-02-18T04:24:38;2.53;;;1.60;;
72379;SDS011;60354;47.798;12.472;2023-02-18T04:27:03;3.17;;;1.65;;
72379;SDS011;60354;47.798;12.472;2023-02-18T04:29:29;3.63;;;1.70;;
72379;SDS011;60354;47.798;12.472;2023-02-18T04:31:54;3.10;;;1.75;;
72379;SDS011;60354;47.798;12.472;2023-02-18T04:34:20;3.15;;;1.70;;
72379;SDS011;60354;47.798;12.472;2023-02-18T04:36:45;3.15;;;1.80;;
72379;SDS011;60354;47.798;12.472;2023-02-18T04:39:11;3.38;;;2.08;;
72379;SDS011;60354;47.798;12.472;2023-02-18T04:41:36;4.40;;;1.70;;
72379;SDS011;60354;47.798;12.472;2023-02-18T04:44:02;3.30;;;1.70;;
72379;SDS011;60354;47.798;12.472;2023-02-18T04:46:27;3.38;;;1.70;;
72379;SDS011;60354;47.798;12.472;2023-02-18T04:48:53;3.75;;;1.80;;
72379;SDS011;60354;47.798;12.472;2023-02-18T04:51:18;3.10;;;1.88;;
72379;SDS011;60354;47.798;12.472;2023-02-18T04:53:44;2.72;;;1.80;;
72379;SDS011;60354;47.798;12.472;2023-02-18T04:56:10;3.15;;;1.90;;
72379;SDS011;60354;47.798;12.472;2023-02-18T04:58:35;3.08;;;2.25;;
72379;SDS011;60354;47.798;12.472;2023-02-18T05:01:02;4.57;;;2.00;;
72379;SDS011;60354;47.798;12.472;2023-02-18T05:03:29;2.88;;;2.00;;
72379;SDS011;60354;47.798;12.472;2023-02-18T05:05:55;4.90;;;2.10;;
72379;SDS011;60354;47.798;12.472;2023-02-18T05:08:21;5.38;;;2.28;;
72379;SDS011;60354;47.798;12.472;2023-02-18T05:10:47;3.20;;;1.90;;
72379;SDS011;60354;47.798;12.472;2023-02-18T05:13:12;3.30;;;1.75;;
72379;SDS011;60354;47.798;12.472;2023-02-18T05:15:38;3.80;;;2.25;;
72379;SDS011;60354;47.798;12.472;2023-02-18T05:18:04;7.13;;;1.85;;
72379;SDS011;60354;47.798;12.472;2023-02-18T05:20:29;3.75;;;2.10;;
72379;SDS011;60354;47.798;12.472;2023-02-18T05:22:55;3.15;;;1.90;;
72379;SDS011;60354;47.798;12.472;2023-02-18T05:25:20;4.65;;;1.83;;
72379;SDS011;60354;47.798;12.472;2023-02-18T05:27:46;3.30;;;1.90;;
72379;SDS011;60354;47.798;12.472;2023-02-18T05:30:12;3.85;;;1.95;;
72379;SDS011;60354;47.798;12.472;2023-02-18T05:32:38;3.83;;;1.70;;
72379;SDS011;60354;47.798;12.472;2023-02-18T05:35:03;2.80;;;1.70;;
72379;SDS011;60354;47.798;12.472;2023-02-18T05:37:29;3.42;;;1.80;;
72379;SDS011;60354;47.798;12.472;2023-02-18T05:39:54;3.03;;;2.03;;
72379;SDS011;60354;47.798;12.472;2023-02-18T05:42:20;3.33;;;1.80;;
72379;SDS011;60354;47.798;12.472;2023-02-18T05:44:47;3.60;;;1.90;;
72379;SDS011;60354;47.798;12.472;2023-02-18T05:47:13;3.22;;;2.00;;
72379;SDS011;60354;47.798;12.472;2023-02-18T05:49:39;2.60;;;1.80;;
72379;SDS011;60354;47.798;12.472;2023-02-18T05:52:06;2.83;;;1.90;;
72379;SDS011;60354;47.798;12.472;2023-02-18T05:54:32;3.78;;;1.83;;
72379;SDS011;60354;47.798;12.472;2023-02-18T05:56:58;2.70;;;1.90;;
72379;SDS011;60354;47.798;12.472;2023-02-18T05:59:24;2.90;;;1.85;;
72379;SDS011;60354;47.798;12.472;2023-02-18T06:01:49;3.75;;;2.10;;
72379;SDS011;60354;47.798;12.472;2023-02-18T06:04:15;2.80;;;1.80;;
72379;SDS011;60354;47.798;12.472;2023-02-18T06:06:41;5.10;;;2.28;;
72379;SDS011;60354;47.798;12.472;2023-02-18T06:09:06;3.35;;;2.10;;
72379;SDS011;60354;47.798;12.472;2023-02-18T06:11:33;4.63;;;2.20;;
72379;SDS011;60354;47.798;12.472;2023-02-18T06:13:59;2.60;;;1.90;;
72379;SDS011;60354;47.798;12.472;2023-02-18T06:16:25;4.35;;;1.85;;
72379;SDS011;60354;47.798;12.472;2023-02-18T06:18:51;3.95;;;1.92;;
72379;SDS011;60354;47.798;12.472;2023-02-18T06:21:16;3.63;;;2.00;;
72379;SDS011;60354;47.798;12.472;2023-02-18T06:23:42;3.28;;;1.90;;
72379;SDS011;60354;47.798;12.472;2023-02-18T06:26:07;6.72;;;1.88;;
72379;SDS011;60354;47.798;12.472;2023-02-18T06:28:33;2.65;;;1.85;;
72379;SDS011;60354;47.798;12.472;2023-02-18T06:30:59;2.92;;;1.83;;
72379;SDS011;60354;47.798;12.472;2023-02-18T06:33:24;3.92;;;2.05;;
72379;SDS011;60354;47.798;12.472;2023-02-18T06:36:09;4.50;;;2.00;;
72379;SDS011;60354;47.798;12.472;2023-02-18T06:38:36;3.30;;;2.30;;
72379;SDS011;60354;47.798;12.472;2023-02-18T06:41:03;2.85;;;1.85;;
72379;SDS011;60354;47.798;12.472;2023-02-18T06:43:29;5.80;;;2.60;;
72379;SDS011;60354;47.798;12.472;2023-02-18T06:45:55;4.88;;;2.17;;
72379;SDS011;60354;47.798;12.472;2023-02-18T06:48:20;3.42;;;2.00;;
72379;SDS011;60354;47.798;12.472;2023-02-18T06:50:47;3.88;;;2.20;;
72379;SDS011;60354;47.798;12.472;2023-02-18T06:53:12;2.83;;;2.00;;
72379;SDS011;60354;47.798;12.472;2023-02-18T06:55:38;3.40;;;2.40;;
72379;SDS011;60354;47.798;12.472;2023-02-18T06:58:04;4.65;;;2.15;;
72379;SDS011;60354;47.798;12.472;2023-02-18T07:00:30;3.15;;;1.70;;
72379;SDS011;60354;47.798;12.472;2023-02-18T07:02:56;4.07;;;1.70;;
72379;SDS011;60354;47.798;12.472;2023-02-18T07:05:21;2.70;;;1.75;;
72379;SDS011;60354;47.798;12.472;2023-02-18T07:07:47;3.45;;;2.10;;
72379;SDS011;60354;47.798;12.472;2023-02-18T07:10:12;3.88;;;1.90;;
72379;SDS011;60354;47.798;12.472;2023-02-18T07:12:38;3.83;;;1.90;;
72379;SDS011;60354;47.798;12.472;2023-02-18T07:15:03;2.78;;;1.83;;
72379;SDS011;60354;47.798;12.472;2023-02-18T07:17:29;2.90;;;1.92;;
72379;SDS011;60354;47.798;12.472;2023-02-18T07:19:54;5.03;;;2.33;;
72379;SDS011;60354;47.798;12.472;2023-02-18T07:22:20;4.70;;;2.22;;
72379;SDS011;60354;47.798;12.472;2023-02-18T07:24:50;3.65;;;2.13;;
72379;SDS011;60354;47.798;12.472;2023-02-18T07:27:16;3.15;;;2.08;;
72379;SDS011;60354;47.798;12.472;2023-02-18T07:29:42;3.80;;;2.00;;
72379;SDS011;60354;47.798;12.472;2023-02-18T07:32:09;7.20;;;3.00;;
72379;SDS011;60354;47.798;12.472;2023-02-18T07:34:36;3.28;;;2.20;;
72379;SDS011;60354;47.798;12.472;2023-02-18T07:37:02;5.40;;;2.05;;
72379;SDS011;60354;47.798;12.472;2023-02-18T07:39:33;3.38;;;1.90;;
72379;SDS011;60354;47.798;12.472;2023-02-18T07:41:59;2.40;;;1.80;;
72379;SDS011;60354;47.798;12.472;2023-02-18T07:44:26;4.35;;;1.80;;
72379;SDS011;60354;47.798;12.472;2023-02-18T07:46:51;2.92;;;1.60;;
72379;SDS011;60354;47.798;12.472;2023-02-18T07:49:17;3.83;;;1.90;;
72379;SDS011;60354;47.798;12.472;2023-02-18T07:51:42;5.43;;;2.10;;
72379;SDS011;60354;47.798;12.472;2023-02-18T07:54:11;3.65;;;1.88;;
72379;SDS011;60354;47.798;12.472;2023-02-18T07:56:37;3.53;;;1.90;;
72379;SDS011;60354;47.798;12.472;2023-02-18T07:59:02;3.58;;;2.17;;
72379;SDS011;60354;47.798;12.472;2023-02-18T08:01:28;10.80;;;2.30;;
72379;SDS011;60354;47.798;12.472;2023-02-18T08:03:53;3.90;;;1.95;;
72379;SDS011;60354;47.798;12.472;2023-02-18T08:06:20;3.50;;;2.22;;
72379;SDS011;60354;47.798;12.472;2023-02-18T08:08:49;2.20;;;1.58;;
72379;SDS011;60354;47.798;12.472;2023-02-18T08:11:14;2.55;;;1.58;;
72379;SDS011;60354;47.798;12.472;2023-02-18T08:13:40;2.40;;;1.42;;
72379;SDS011;60354;47.798;12.472;2023-02-18T08:16:05;3.33;;;1.65;;
72379;SDS011;60354;47.798;12.472;2023-02-18T08:18:31;2.67;;;1.60;;
72379;SDS011;60354;47.798;12.472;2023-02-18T08:20:57;2.50;;;1.60;;
72379;SDS011;60354;47.798;12.472;2023-02-18T08:23:22;2.85;;;1.85;;
72379;SDS011;60354;47.798;12.472;2023-02-18T08:25:51;2.90;;;1.67;;
72379;SDS011;60354;47.798;12.472;2023-02-18T08:28:18;3.80;;;1.70;;
72379;SDS011;60354;47.798;12.472;2023-02-18T08:30:45;3.25;;;1.67;;
72379;SDS011;60354;47.798;12.472;2023-02-18T08:33:12;3.05;;;1.65;;
72379;SDS011;60354;47.798;12.472;2023-02-18T08:35:38;2.25;;;1.60;;
72379;SDS011;60354;47.798;12.472;2023-02-18T08:38:04;5.57;;;1.70;;
72379;SDS011;60354;47.798;12.472;2023-02-18T08:40:29;2.70;;;1.50;;
72379;SDS011;60354;47.798;12.472;2023-02-18T08:42:55;1.75;;;1.48;;
72379;SDS011;60354;47.798;12.472;2023-02-18T08:45:20;2.72;;;1.50;;
72379;SDS011;60354;47.798;12.472;2023-02-18T08:47:46;3.72;;;1.80;;
72379;SDS011;60354;47.798;12.472;2023-02-18T08:50:11;2.90;;;1.50;;
72379;SDS011;60354;47.798;12.472;2023-02-18T08:52:37;4.53;;;1.40;;
72379;SDS011;60354;47.798;12.472;2023-02-18T08:55:03;2.17;;;1.35;;
72379;SDS011;60354;47.798;12.472;2023-02-18T08:57:29;2.90;;;1.50;;
72379;SDS011;60354;47.798;12.472;2023-02-18T08:59:55;3.13;;;1.40;;
72379;SDS011;60354;47.798;12.472;2023-02-18T09:02:20;1.92;;;1.35;;
72379;SDS011;60354;47.798;12.472;2023-02-18T09:04:46;1.85;;;1.33;;
72379;SDS011;60354;47.798;12.472;2023-02-18T09:07:12;2.08;;;1.27;;
72379;SDS011;60354;47.798;12.472;2023-02-18T09:09:37;3.90;;;1.60;;
72379;SDS011;60354;47.798;12.472;2023-02-18T09:12:03;3.15;;;1.50;;
72379;SDS011;60354;47.798;12.472;2023-02-18T09:14:28;1.88;;;1.40;;
72379;SDS011;60354;47.798;12.472;2023-02-18T09:16:55;3.33;;;1.30;;
72379;SDS011;60354;47.798;12.472;2023-02-18T09:19:21;2.47;;;1.50;;
72379;SDS011;60354;47.798;12.472;2023-02-18T09:21:47;3.42;;;1.88;;
72379;SDS011;60354;47.798;12.472;2023-02-18T09:24:12;3.78;;;1.95;;
72379;SDS011;60354;47.798;12.472;2023-02-18T09:26:38;5.53;;;2.30;;
72379;SDS011;60354;47.798;12.472;2023-02-18T09:29:04;3.83;;;1.95;;
72379;SDS011;60354;47.798;12.472;2023-02-18T09:31:29;2.45;;;1.80;;
72379;SDS011;60354;47.798;12.472;2023-02-18T09:33:58;2.00;;;1.35;;
72379;SDS011;60354;47.798;12.472;2023-02-18T09:36:25;3.95;;;2.28;;
72379;SDS011;60354;47.798;12.472;2023-02-18T09:38:51;4.63;;;2.13;;
72379;SDS011;60354;47.798;12.472;2023-02-18T09:43:53;4.38;;;2.00;;
72379;SDS011;60354;47.798;12.472;2023-02-18T09:46:23;3.45;;;1.70;;
72379;SDS011;60354;47.798;12.472;2023-02-18T09:48:51;4.88;;;1.58;;
72379;SDS011;60354;47.798;12.472;2023-02-18T09:51:17;4.47;;;1.60;;
72379;SDS011;60354;47.798;12.472;2023-02-18T09:53:44;3.05;;;1.30;;
72379;SDS011;60354;47.798;12.472;2023-02-18T09:56:15;3.80;;;1.30;;
72379;SDS011;60354;47.798;12.472;2023-02-18T09:58:46;1.60;;;1.20;;
72379;SDS011;60354;47.798;12.472;2023-02-18T10:04:03;3.03;;;1.20;;
72379;SDS011;60354;47.798;12.472;2023-02-18T10:09:08;2.22;;;1.38;;
72379;SDS011;60354;47.798;12.472;2023-02-18T10:11:44;2.33;;;1.40;;
72379;SDS011;60354;47.798;12.472;2023-02-18T10:14:13;2.03;;;1.20;;
72379;SDS011;60354;47.798;12.472;2023-02-18T10:16:40;4.65;;;1.45;;
72379;SDS011;60354;47.798;12.472;2023-02-18T10:19:28;3.72;;;1.50;;
72379;SDS011;60354;47.798;12.472;2023-02-18T10:21:55;8.73;;;1.63;;
72379;SDS011;60354;47.798;12.472;2023-02-18T10:26:53;1.95;;;1.33;;
72379;SDS011;60354;47.798;12.472;2023-02-18T10:29:19;2.75;;;1.35;;
72379;SDS011;60354;47.798;12.472;2023-02-18T10:31:49;3.75;;;1.30;;
72379;SDS011;60354;47.798;12.472;2023-02-18T10:42:35;2.97;;;1.45;;
72379;SDS011;60354;47.798;12.472;2023-02-18T10:51:14;3.17;;;1.30;;
72379;SDS011;60354;47.798;12.472;2023-02-18T10:53:42;3.00;;;1.10;;
72379;SDS011;60354;47.798;12.472;2023-02-18T10:56:31;2.00;;;1.25;;
72379;SDS011;60354;47.798;12.472;2023-02-18T10:59:00;2.33;;;1.30;;
72379;SDS011;60354;47.798;12.472;2023-02-18T11:01:30;4.07;;;1.30;;
72379;SDS011;60354;47.798;12.472;2023-02-18T11:04:04;3.03;;;1.27;;
72379;SDS011;60354;47.798;12.472;2023-02-18T11:06:40;2.78;;;1.20;;
72379;SDS011;60354;47.798;12.472;2023-02-18T11:11:46;2.90;;;1.10;;
72379;SDS011;60354;47.798;12.472;2023-02-18T11:14:12;2.75;;;1.10;;
72379;SDS011;60354;47.798;12.472;2023-02-18T11:16:43;1.73;;;1.00;;
72379;SDS011;60354;47.798;12.472;2023-02-18T11:22:05;2.60;;;1.17;;
72379;SDS011;60354;47.798;12.472;2023-02-18T11:24:43;4.30;;;1.30;;
72379;SDS011;60354;47.798;12.472;2023-02-18T11:32:55;1.77;;;1.17;;
72379;SDS011;60354;47.798;12.472;2023-02-18T11:35:26;2.15;;;1.10;;
72379;SDS011;60354;47.798;12.472;2023-02-18T11:37:55;2.47;;;1.15;;
72379;SDS011;60354;47.798;12.472;2023-02-18T11:40:24;2.92;;;1.35;;
72379;SDS011;60354;47.798;12.472;2023-02-18T11:45:29;2.88;;;1.20;;
72379;SDS011;60354;47.798;12.472;2023-02-18T11:47:59;4.40;;;1.20;;
72379;SDS011;60354;47.798;12.472;2023-02-18T11:50:28;2.17;;;1.20;;
72379;SDS011;60354;47.798;12.472;2023-02-18T11:52:56;2.72;;;1.00;;
72379;SDS011;60354;47.798;12.472;2023-02-18T11:55:25;2.05;;;1.00;;
72379;SDS011;60354;47.798;12.472;2023-02-18T11:57:55;1.90;;;1.00;;
72379;SDS011;60354;47.798;12.472;2023-02-18T12:03:01;4.43;;;1.08;;
72379;SDS011;60354;47.798;12.472;2023-02-18T12:05:29;1.65;;;0.95;;
72379;SDS011;60354;47.798;12.472;2023-02-18T12:08:01;1.45;;;0.90;;
72379;SDS011;60354;47.798;12.472;2023-02-18T12:10:41;1.10;;;0.90;;
72379;SDS011;60354;47.798;12.472;2023-02-18T12:13:33;2.67;;;1.05;;
72379;SDS011;60354;47.798;12.472;2023-02-18T12:24:46;1.00;;;0.80;;
72379;SDS011;60354;47.798;12.472;2023-02-18T12:48:58;1.75;;;1.10;;
72379;SDS011;60354;47.798;12.472;2023-02-18T12:52:09;2.53;;;0.90;;
72379;SDS011;60354;47.798;12.472;2023-02-18T12:54:37;1.95;;;1.10;;
72379;SDS011;60354;47.798;12.472;2023-02-18T13:06:00;1.15;;;0.75;;
72379;SDS011;60354;47.798;12.472;2023-02-18T13:11:24;4.47;;;0.90;;
72379;SDS011;60354;47.798;12.472;2023-02-18T13:16:33;1.73;;;0.80;;
72379;SDS011;60354;47.798;12.472;2023-02-18T13:21:47;2.50;;;0.90;;
72379;SDS011;60354;47.798;12.472;2023-02-18T13:24:19;2.53;;;0.82;;
72379;SDS011;60354;47.798;12.472;2023-02-18T13:27:19;1.55;;;0.88;;
72379;SDS011;60354;47.798;12.472;2023-02-18T13:30:08;2.88;;;0.93;;
72379;SDS011;60354;47.798;12.472;2023-02-18T13:40:19;2.25;;;1.13;;
72379;SDS011;60354;47.798;12.472;2023-02-18T13:42:50;1.27;;;0.80;;
72379;SDS011;60354;47.798;12.472;2023-02-18T13:45:29;1.48;;;0.80;;
72379;SDS011;60354;47.798;12.472;2023-02-18T13:47:56;2.25;;;0.90;;
72379;SDS011;60354;47.798;12.472;2023-02-18T13:52:50;2.15;;;1.00;;
72379;SDS011;60354;47.798;12.472;2023-02-18T13:55:24;3.28;;;1.10;;
72379;SDS011;60354;47.798;12.472;2023-02-18T13:57:59;2.05;;;0.98;;
72379;SDS011;60354;47.798;12.472;2023-02-18T14:00:33;2.38;;;1.15;;
72379;SDS011;60354;47.798;12.472;2023-02-18T14:03:02;2.85;;;0.93;;
72379;SDS011;60354;47.798;12.472;2023-02-18T14:05:45;4.35;;;1.20;;
72379;SDS011;60354;47.798;12.472;2023-02-18T14:10:39;1.77;;;1.00;;
72379;SDS011;60354;47.798;12.472;2023-02-18T14:16:04;2.05;;;0.73;;
72379;SDS011;60354;47.798;12.472;2023-02-18T14:21:20;1.50;;;0.73;;
72379;SDS011;60354;47.798;12.472;2023-02-18T14:23:59;0.90;;;0.70;;
72379;SDS011;60354;47.798;12.472;2023-02-18T14:26:39;2.28;;;0.80;;
72379;SDS011;60354;47.798;12.472;2023-02-18T14:29:42;1.55;;;0.65;;
72379;SDS011;60354;47.798;12.472;2023-02-18T14:32:02;1.23;;;0.70;;
72379;SDS011;60354;47.798;12.472;2023-02-18T14:37:45;1.73;;;0.70;;
72379;SDS011;60354;47.798;12.472;2023-02-18T14:51:28;1.20;;;0.60;;
72379;SDS011;60354;47.798;12.472;2023-02-18T14:53:55;0.55;;;0.50;;
72379;SDS011;60354;47.798;12.472;2023-02-18T14:58:59;0.75;;;0.55;;
72379;SDS011;60354;47.798;12.472;2023-02-18T15:01:28;0.95;;;0.63;;
72379;SDS011;60354;47.798;12.472;2023-02-18T15:04:01;0.65;;;0.63;;
72379;SDS011;60354;47.798;12.472;2023-02-18T15:09:02;1.70;;;0.60;;
72379;SDS011;60354;47.798;12.472;2023-02-18T15:11:59;2.13;;;0.70;;
72379;SDS011;60354;47.798;12.472;2023-02-18T15:14:26;2.25;;;0.60;;
72379;SDS011;60354;47.798;12.472;2023-02-18T15:16:54;2.00;;;0.60;;
72379;SDS011;60354;47.798;12.472;2023-02-18T15:19:22;0.65;;;0.60;;
72379;SDS011;60354;47.798;12.472;2023-02-18T15:21:50;0.75;;;0.60;;
72379;SDS011;60354;47.798;12.472;2023-02-18T15:24:26;2.33;;;0.90;;
72379;SDS011;60354;47.798;12.472;2023-02-18T15:26:57;1.98;;;0.82;;
72379;SDS011;60354;47.798;12.472;2023-02-18T15:29:28;0.80;;;0.60;;
72379;SDS011;60354;47.798;12.472;2023-02-18T15:31:57;1.58;;;0.70;;
72379;SDS011;60354;47.798;12.472;2023-02-18T15:36:50;2.70;;;0.73;;
72379;SDS011;60354;47.798;12.472;2023-02-18T15:39:17;0.60;;;0.57;;
72379;SDS011;60354;47.798;12.472;2023-02-18T15:41:42;1.20;;;0.70;;
72379;SDS011;60354;47.798;12.472;2023-02-18T15:44:08;2.67;;;0.60;;
72379;SDS011;60354;47.798;12.472;2023-02-18T15:46:44;0.60;;;0.60;;
72379;SDS011;60354;47.798;12.472;2023-02-18T15:49:10;0.45;;;0.45;;
72379;SDS011;60354;47.798;12.472;2023-02-18T15:51:40;0.93;;;0.57;;
72379;SDS011;60354;47.798;12.472;2023-02-18T15:54:11;0.77;;;0.70;;
72379;SDS011;60354;47.798;12.472;2023-02-18T15:56:42;1.60;;;0.60;;
72379;SDS011;60354;47.798;12.472;2023-02-18T16:01:42;2.33;;;0.80;;
72379;SDS011;60354;47.798;12.472;2023-02-18T16:04:12;1.63;;;0.77;;
72379;SDS011;60354;47.798;12.472;2023-02-18T16:06:43;0.95;;;0.80;;
72379;SDS011;60354;47.798;12.472;2023-02-18T16:09:13;0.60;;;0.60;;
72379;SDS011;60354;47.798;12.472;2023-02-18T16:11:42;1.35;;;0.80;;
72379;SDS011;60354;47.798;12.472;2023-02-18T16:14:28;1.38;;;0.80;;
72379;SDS011;60354;47.798;12.472;2023-02-18T16:17:04;1.83;;;0.80;;
72379;SDS011;60354;47.798;12.472;2023-02-18T16:19:32;1.40;;;0.70;;
72379;SDS011;60354;47.798;12.472;2023-02-18T16:22:02;1.13;;;0.70;;
72379;SDS011;60354;47.798;12.472;2023-02-18T16:24:30;2.97;;;0.90;;
72379;SDS011;60354;47.798;12.472;2023-02-18T16:26:59;0.80;;;0.70;;
72379;SDS011;60354;47.798;12.472;2023-02-18T16:29:35;2.65;;;0.70;;
72379;SDS011;60354;47.798;12.472;2023-02-18T16:32:04;0.90;;;0.70;;
72379;SDS011;60354;47.798;12.472;2023-02-18T16:34:29;10.63;;;1.10;;
72379;SDS011;60354;47.798;12.472;2023-02-18T16:36:55;1.35;;;0.80;;
72379;SDS011;60354;47.798;12.472;2023-02-18T16:39:39;1.67;;;0.85;;
72379;SDS011;60354;47.798;12.472;2023-02-18T16:42:08;2.58;;;0.90;;
72379;SDS011;60354;47.798;12.472;2023-02-18T16:44:37;1.38;;;0.80;;
72379;SDS011;60354;47.798;12.472;2023-02-18T16:47:03;1.67;;;1.00;;
72379;SDS011;60354;47.798;12.472;2023-02-18T16:49:29;2.63;;;1.02;;
72379;SDS011;60354;47.798;12.472;2023-02-18T16:51:55;1.27;;;0.90;;
72379;SDS011;60354;47.798;12.472;2023-02-18T16:54:21;3.22;;;1.00;;
72379;SDS011;60354;47.798;12.472;2023-02-18T16:56:46;1.60;;;0.98;;
72379;SDS011;60354;47.798;12.472;2023-02-18T16:59:12;2.50;;;1.00;;
72379;SDS011;60354;47.798;12.472;2023-02-18T17:01:39;4.25;;;2.10;;
72379;SDS011;60354;47.798;12.472;2023-02-18T17:04:11;8.07;;;3.67;;
72379;SDS011;60354;47.798;12.472;2023-02-18T17:06:38;16.02;;;7.93;;
72379;SDS011;60354;47.798;12.472;2023-02-18T17:09:14;14.27;;;7.80;;
72379;SDS011;60354;47.798;12.472;2023-02-18T17:11:42;7.95;;;4.13;;
72379;SDS011;60354;47.798;12.472;2023-02-18T17:14:16;6.85;;;3.03;;
72379;SDS011;60354;47.798;12.472;2023-02-18T17:16:43;5.50;;;2.20;;
72379;SDS011;60354;47.798;12.472;2023-02-18T17:19:12;3.72;;;2.03;;
72379;SDS011;60354;47.798;12.472;2023-02-18T17:21:38;2.90;;;1.70;;
72379;SDS011;60354;47.798;12.472;2023-02-18T17:24:04;4.78;;;2.45;;
72379;SDS011;60354;47.798;12.472;2023-02-18T17:26:30;5.40;;;2.70;;
72379;SDS011;60354;47.798;12.472;2023-02-18T17:28:56;10.70;;;3.95;;
72379;SDS011;60354;47.798;12.472;2023-02-18T17:31:30;8.38;;;3.10;;
72379;SDS011;60354;47.798;12.472;2023-02-18T17:34:03;6.47;;;3.60;;
72379;SDS011;60354;47.798;12.472;2023-02-18T17:36:32;10.38;;;6.72;;
72379;SDS011;60354;47.798;12.472;2023-02-18T17:38:58;10.10;;;3.83;;
72379;SDS011;60354;47.798;12.472;2023-02-18T17:41:24;1.85;;;1.15;;
72379;SDS011;60354;47.798;12.472;2023-02-18T17:43:50;1.58;;;1.10;;
72379;SDS011;60354;47.798;12.472;2023-02-18T17:46:16;2.45;;;1.40;;
72379;SDS011;60354;47.798;12.472;2023-02-18T17:48:43;4.07;;;2.75;;